Forside
METAR-TAF:

METAR-TAF

Lufthavne :

Koksijde, Belgien

Breddekreds: 51-05N, længdekreds: 002-39E, højde: 4 m

Aktuelle vejr

Denne rapport blev lavet for 37 minutter siden, kl. 02:25 UTC
Vind 1 kt fra varierende retninger
Temperatur 10°C
Fugtighed 93%
Tryk 1033 hPa
Sigt 10 km eller mere

METAR: EBFN 250225Z AUTO VRB01KT 9999 NCD 10/09 Q1033 BLU

Tid: 05:02 (03:02 UTC)

Vejrudsigter

Denne rapport blev lavet for 11 timer og 21 minutter siden, kl. 15:41 UTC
Foreløbig gælder fra 24 på 19 UTC til 25 på 07 UTC
Vind 13 kt fra vest
Sigt 10 km eller mere
Brudte skyer i en højde af 4500 ft
ændring
fra 25 på 02 UTC til 25 på 04 UTC
Vind 3 kt fra varierende retninger
Nogle få skyer i en højde af 2000 ft
Sandsynlighed 40% :
Midlertidig
fra 25 på 02 UTC til 25 på 07 UTC
Sigt: 7000 m
Spredte skyer i en højde af 2000 ft

TAF: EBFN 241541Z 2419/2507 26013KT 9999 BKN045 BECMG 2502/2504 VRB03KT FEW020 PROB40 TEMPO 2502/2507 7000 SCT020

Vejrobservationer og prognoser fra mere end 4000 lufthavne (METAR og TAF).

De gule og røde prikker repræsenterer de meteorologiske stationer.

Flyt musen over at se navnet på stationen.

Så klik over at se vejr observationer og prognoser.

At skifte det kort: Klik på de grønne knapper med et sort kors for at zoome ind; på den grønne knap med en bindestreg for at zoome ud; eller på de grønne pile for tilstødende kort.


METAR-TAF: